메인 페이지
METAR-TAF:

METAR-TAF

공항 :

Tyler Pounds Regional Airport

Tyler, 텍사스, 미국

위도: 32-21-31N, 경도: 095-24-14W, 고도: 165m

현재 날씨관측

예보는 23분 전, 00:53시(UTC)에 발표되었습니다.
무풍
온도 9°C
습도 49%
기압 1020 hPa
시정: 16.1km
맑음

METAR: KTYR 170053Z 00000KT 10SM CLR 09/M01 A3013 RMK AO2 SLP202 T00941006

시각: 19:16 (01:16 UTC)

예보

예보는 1 시간 56분 전, 23:20시(UTC)에 발표되었습니다.
예보 대상 시간: 17일 00시부터 17일 24시까지 (UTC)
남동3kt
시정: 10km
고도 25000ft 상공 구름 많음
17일 1500시부터 (UTC)
여러 방향의 바람 5kt
시정: 10km
고도 6000ft 상공 구름 보통
고도 25000ft 상공 구름 보통

TAF: KTYR 162320Z 1700/1724 14003KT P6SM BKN250 FM171500 VRB05KT P6SM SCT060 SCT250

4,000개 이상의 공항 관측 자료 및 예보 (METAR 및 TAF 보고).

지도상에서 검색 가능한 기상관측소가 노란 점과 빨간 점으로 표시되어 있습니다.

기상관측소 명을 보려면 표시 위로 마우스를 이동하세요.

날씨 관측과 예보를 보려면 클릭하세요.

지도 변경 : 확대하려면 엑스 표시가 있는 녹색 버튼, 축소하려면 빼기 표시가 있는 녹색 버튼, 다음 페이지의 지도를 보려면 녹색 화살표를 클릭하세요.


METAR-TAF: